sensor_id;sensor_type;location;lat;lon;timestamp;temperature;humidity
20841;DHT22;10581;48.524;9.040;2022-11-20T00:00:44;4.20;99.90
20841;DHT22;10581;48.524;9.040;2022-11-20T00:03:09;4.10;99.90
20841;DHT22;10581;48.524;9.040;2022-11-20T00:05:34;4.10;99.90
20841;DHT22;10581;48.524;9.040;2022-11-20T00:08:00;4.10;99.90
20841;DHT22;10581;48.524;9.040;2022-11-20T00:10:25;4.00;99.90
20841;DHT22;10581;48.524;9.040;2022-11-20T00:12:54;4.00;99.90
20841;DHT22;10581;48.524;9.040;2022-11-20T00:15:20;4.00;99.90
20841;DHT22;10581;48.524;9.040;2022-11-20T00:17:45;3.90;99.90
20841;DHT22;10581;48.524;9.040;2022-11-20T00:20:11;3.90;99.90
20841;DHT22;10581;48.524;9.040;2022-11-20T00:22:37;3.90;99.90
20841;DHT22;10581;48.524;9.040;2022-11-20T00:25:02;4.10;99.90
20841;DHT22;10581;48.524;9.040;2022-11-20T00:27:28;4.00;99.90
20841;DHT22;10581;48.524;9.040;2022-11-20T00:29:53;3.90;99.90
20841;DHT22;10581;48.524;9.040;2022-11-20T00:32:19;3.90;99.90
20841;DHT22;10581;48.524;9.040;2022-11-20T00:34:44;3.90;99.90
20841;DHT22;10581;48.524;9.040;2022-11-20T00:37:10;4.00;99.90
20841;DHT22;10581;48.524;9.040;2022-11-20T00:39:35;4.10;99.90
20841;DHT22;10581;48.524;9.040;2022-11-20T00:42:01;4.20;99.90
20841;DHT22;10581;48.524;9.040;2022-11-20T00:44:26;4.20;99.90
20841;DHT22;10581;48.524;9.040;2022-11-20T00:46:52;4.20;99.90
20841;DHT22;10581;48.524;9.040;2022-11-20T00:49:17;4.10;99.90
20841;DHT22;10581;48.524;9.040;2022-11-20T00:51:43;4.00;99.90
20841;DHT22;10581;48.524;9.040;2022-11-20T00:54:08;3.90;99.90
20841;DHT22;10581;48.524;9.040;2022-11-20T00:56:34;3.80;99.90
20841;DHT22;10581;48.524;9.040;2022-11-20T00:59:00;3.60;99.90
20841;DHT22;10581;48.524;9.040;2022-11-20T01:01:26;3.50;99.90
20841;DHT22;10581;48.524;9.040;2022-11-20T01:03:52;3.40;99.90
20841;DHT22;10581;48.524;9.040;2022-11-20T01:06:22;3.40;99.90
20841;DHT22;10581;48.524;9.040;2022-11-20T01:08:48;3.30;99.90
20841;DHT22;10581;48.524;9.040;2022-11-20T01:11:16;3.30;99.90
20841;DHT22;10581;48.524;9.040;2022-11-20T01:13:42;3.20;99.90
20841;DHT22;10581;48.524;9.040;2022-11-20T01:16:10;3.20;99.90
20841;DHT22;10581;48.524;9.040;2022-11-20T01:18:36;3.10;99.90
20841;DHT22;10581;48.524;9.040;2022-11-20T01:21:03;3.10;99.90
20841;DHT22;10581;48.524;9.040;2022-11-20T01:23:30;3.10;99.90
20841;DHT22;10581;48.524;9.040;2022-11-20T01:25:56;3.00;99.90
20841;DHT22;10581;48.524;9.040;2022-11-20T01:28:22;3.00;99.90
20841;DHT22;10581;48.524;9.040;2022-11-20T01:30:47;3.00;99.90
20841;DHT22;10581;48.524;9.040;2022-11-20T01:33:12;2.90;99.90
20841;DHT22;10581;48.524;9.040;2022-11-20T01:35:38;2.90;99.90
20841;DHT22;10581;48.524;9.040;2022-11-20T01:38:03;3.00;99.90
20841;DHT22;10581;48.524;9.040;2022-11-20T01:40:29;2.90;99.90
20841;DHT22;10581;48.524;9.040;2022-11-20T01:42:59;2.90;99.90
20841;DHT22;10581;48.524;9.040;2022-11-20T01:48:15;2.90;99.90
20841;DHT22;10581;48.524;9.040;2022-11-20T01:50:41;2.90;99.90
20841;DHT22;10581;48.524;9.040;2022-11-20T01:53:08;2.80;99.90
20841;DHT22;10581;48.524;9.040;2022-11-20T01:55:36;2.70;99.90
20841;DHT22;10581;48.524;9.040;2022-11-20T01:58:04;2.60;99.90
20841;DHT22;10581;48.524;9.040;2022-11-20T02:00:30;2.70;99.90
20841;DHT22;10581;48.524;9.040;2022-11-20T02:03:00;2.60;99.90
20841;DHT22;10581;48.524;9.040;2022-11-20T02:07:52;2.60;99.90
20841;DHT22;10581;48.524;9.040;2022-11-20T02:10:19;2.60;99.90
20841;DHT22;10581;48.524;9.040;2022-11-20T02:12:45;2.60;99.90
20841;DHT22;10581;48.524;9.040;2022-11-20T02:15:29;2.70;99.90
20841;DHT22;10581;48.524;9.040;2022-11-20T02:17:55;2.70;99.90
20841;DHT22;10581;48.524;9.040;2022-11-20T02:20:20;2.80;99.90
20841;DHT22;10581;48.524;9.040;2022-11-20T02:22:54;2.80;99.90
20841;DHT22;10581;48.524;9.040;2022-11-20T02:25:22;2.80;99.90
20841;DHT22;10581;48.524;9.040;2022-11-20T02:27:49;2.80;99.90
20841;DHT22;10581;48.524;9.040;2022-11-20T02:30:15;2.80;99.90
20841;DHT22;10581;48.524;9.040;2022-11-20T02:32:40;2.80;99.90
20841;DHT22;10581;48.524;9.040;2022-11-20T02:37:53;2.80;99.90
20841;DHT22;10581;48.524;9.040;2022-11-20T02:40:19;2.80;99.90
20841;DHT22;10581;48.524;9.040;2022-11-20T02:42:44;2.80;99.90
20841;DHT22;10581;48.524;9.040;2022-11-20T02:45:10;2.80;99.90
20841;DHT22;10581;48.524;9.040;2022-11-20T02:47:36;2.70;99.90
20841;DHT22;10581;48.524;9.040;2022-11-20T02:50:01;2.70;99.90
20841;DHT22;10581;48.524;9.040;2022-11-20T02:52:27;2.60;99.90
20841;DHT22;10581;48.524;9.040;2022-11-20T02:54:52;2.70;99.90
20841;DHT22;10581;48.524;9.040;2022-11-20T02:57:18;2.70;99.90
20841;DHT22;10581;48.524;9.040;2022-11-20T02:59:43;2.70;99.90
20841;DHT22;10581;48.524;9.040;2022-11-20T03:02:09;2.70;99.90
20841;DHT22;10581;48.524;9.040;2022-11-20T03:04:34;2.60;99.90
20841;DHT22;10581;48.524;9.040;2022-11-20T03:07:00;2.60;99.90
20841;DHT22;10581;48.524;9.040;2022-11-20T03:09:25;2.60;99.90
20841;DHT22;10581;48.524;9.040;2022-11-20T03:11:51;2.80;99.90
20841;DHT22;10581;48.524;9.040;2022-11-20T03:14:16;2.90;99.90
20841;DHT22;10581;48.524;9.040;2022-11-20T03:16:42;3.00;99.90
20841;DHT22;10581;48.524;9.040;2022-11-20T03:19:07;3.00;99.90
20841;DHT22;10581;48.524;9.040;2022-11-20T03:21:33;3.10;99.90
20841;DHT22;10581;48.524;9.040;2022-11-20T03:23:59;3.20;99.90
20841;DHT22;10581;48.524;9.040;2022-11-20T03:26:25;3.20;99.90
20841;DHT22;10581;48.524;9.040;2022-11-20T03:28:51;3.20;99.90
20841;DHT22;10581;48.524;9.040;2022-11-20T03:31:18;3.20;99.90
20841;DHT22;10581;48.524;9.040;2022-11-20T03:33:44;3.30;99.90
20841;DHT22;10581;48.524;9.040;2022-11-20T03:36:11;3.40;99.90
20841;DHT22;10581;48.524;9.040;2022-11-20T03:38:37;3.50;99.90
20841;DHT22;10581;48.524;9.040;2022-11-20T03:41:03;3.60;99.90
20841;DHT22;10581;48.524;9.040;2022-11-20T03:43:29;3.70;99.90
20841;DHT22;10581;48.524;9.040;2022-11-20T03:45:55;3.80;99.90
20841;DHT22;10581;48.524;9.040;2022-11-20T03:48:21;3.80;99.90
20841;DHT22;10581;48.524;9.040;2022-11-20T03:50:46;3.80;99.90
20841;DHT22;10581;48.524;9.040;2022-11-20T03:53:15;3.90;99.90
20841;DHT22;10581;48.524;9.040;2022-11-20T03:55:40;3.90;99.90
20841;DHT22;10581;48.524;9.040;2022-11-20T03:58:05;4.00;99.90
20841;DHT22;10581;48.524;9.040;2022-11-20T04:00:31;4.00;99.90
20841;DHT22;10581;48.524;9.040;2022-11-20T04:03:00;4.10;99.90
20841;DHT22;10581;48.524;9.040;2022-11-20T04:05:26;4.20;99.90
20841;DHT22;10581;48.524;9.040;2022-11-20T04:07:51;4.40;99.90
20841;DHT22;10581;48.524;9.040;2022-11-20T04:10:17;4.40;99.90
20841;DHT22;10581;48.524;9.040;2022-11-20T04:12:42;4.50;99.90
20841;DHT22;10581;48.524;9.040;2022-11-20T04:15:08;4.60;99.90
20841;DHT22;10581;48.524;9.040;2022-11-20T04:17:34;4.60;99.90
20841;DHT22;10581;48.524;9.040;2022-11-20T04:20:00;4.60;99.90
20841;DHT22;10581;48.524;9.040;2022-11-20T04:22:25;4.60;99.90
20841;DHT22;10581;48.524;9.040;2022-11-20T04:24:51;4.70;99.90
20841;DHT22;10581;48.524;9.040;2022-11-20T04:27:16;4.80;99.90
20841;DHT22;10581;48.524;9.040;2022-11-20T04:29:42;4.80;99.90
20841;DHT22;10581;48.524;9.040;2022-11-20T04:32:07;4.80;99.90
20841;DHT22;10581;48.524;9.040;2022-11-20T04:34:33;4.80;99.90
20841;DHT22;10581;48.524;9.040;2022-11-20T04:36:59;4.80;99.90
20841;DHT22;10581;48.524;9.040;2022-11-20T04:39:24;4.80;99.90
20841;DHT22;10581;48.524;9.040;2022-11-20T04:41:50;4.90;99.90
20841;DHT22;10581;48.524;9.040;2022-11-20T04:44:35;4.90;99.90
20841;DHT22;10581;48.524;9.040;2022-11-20T04:47:00;4.80;99.90
20841;DHT22;10581;48.524;9.040;2022-11-20T04:49:26;4.80;99.90
20841;DHT22;10581;48.524;9.040;2022-11-20T04:51:54;4.80;99.90
20841;DHT22;10581;48.524;9.040;2022-11-20T04:54:20;4.80;99.90
20841;DHT22;10581;48.524;9.040;2022-11-20T04:56:48;5.00;99.90
20841;DHT22;10581;48.524;9.040;2022-11-20T04:59:14;5.10;99.90
20841;DHT22;10581;48.524;9.040;2022-11-20T05:01:39;5.20;99.90
20841;DHT22;10581;48.524;9.040;2022-11-20T05:04:05;5.10;99.90
20841;DHT22;10581;48.524;9.040;2022-11-20T05:06:31;5.20;99.90
20841;DHT22;10581;48.524;9.040;2022-11-20T05:08:56;5.30;99.90
20841;DHT22;10581;48.524;9.040;2022-11-20T05:11:22;5.30;99.90
20841;DHT22;10581;48.524;9.040;2022-11-20T05:13:47;5.40;99.90
20841;DHT22;10581;48.524;9.040;2022-11-20T05:16:18;5.40;99.90
20841;DHT22;10581;48.524;9.040;2022-11-20T05:18:44;5.40;99.90
20841;DHT22;10581;48.524;9.040;2022-11-20T05:21:09;5.40;99.90
20841;DHT22;10581;48.524;9.040;2022-11-20T05:23:35;5.50;99.90
20841;DHT22;10581;48.524;9.040;2022-11-20T05:26:01;5.50;99.90
20841;DHT22;10581;48.524;9.040;2022-11-20T05:28:27;5.40;99.90
20841;DHT22;10581;48.524;9.040;2022-11-20T05:30:53;5.40;99.90
20841;DHT22;10581;48.524;9.040;2022-11-20T05:33:18;5.40;99.90
20841;DHT22;10581;48.524;9.040;2022-11-20T05:35:44;5.40;99.90
20841;DHT22;10581;48.524;9.040;2022-11-20T05:38:09;5.40;99.90
20841;DHT22;10581;48.524;9.040;2022-11-20T05:40:35;5.40;99.90
20841;DHT22;10581;48.524;9.040;2022-11-20T05:43:01;5.40;99.90
20841;DHT22;10581;48.524;9.040;2022-11-20T05:45:26;5.40;99.90
20841;DHT22;10581;48.524;9.040;2022-11-20T05:47:52;5.40;99.90
20841;DHT22;10581;48.524;9.040;2022-11-20T05:50:17;5.50;99.90
20841;DHT22;10581;48.524;9.040;2022-11-20T05:52:43;5.40;99.90
20841;DHT22;10581;48.524;9.040;2022-11-20T05:55:08;5.40;99.90
20841;DHT22;10581;48.524;9.040;2022-11-20T05:57:34;5.40;99.90
20841;DHT22;10581;48.524;9.040;2022-11-20T05:59:59;5.30;99.90
20841;DHT22;10581;48.524;9.040;2022-11-20T06:02:25;5.30;99.90
20841;DHT22;10581;48.524;9.040;2022-11-20T06:04:50;5.20;99.90
20841;DHT22;10581;48.524;9.040;2022-11-20T06:07:16;5.20;99.90
20841;DHT22;10581;48.524;9.040;2022-11-20T06:09:41;5.10;99.90
20841;DHT22;10581;48.524;9.040;2022-11-20T06:12:07;5.00;99.90
20841;DHT22;10581;48.524;9.040;2022-11-20T06:14:33;4.90;99.90
20841;DHT22;10581;48.524;9.040;2022-11-20T06:16:58;4.90;99.90
20841;DHT22;10581;48.524;9.040;2022-11-20T06:19:24;4.90;99.90
20841;DHT22;10581;48.524;9.040;2022-11-20T06:21:49;4.90;99.90
20841;DHT22;10581;48.524;9.040;2022-11-20T06:24:15;4.90;99.90
20841;DHT22;10581;48.524;9.040;2022-11-20T06:26:41;4.80;99.90
20841;DHT22;10581;48.524;9.040;2022-11-20T06:29:06;4.80;99.90
20841;DHT22;10581;48.524;9.040;2022-11-20T06:31:32;4.80;99.90
20841;DHT22;10581;48.524;9.040;2022-11-20T06:34:06;4.80;99.90
20841;DHT22;10581;48.524;9.040;2022-11-20T06:36:32;4.80;99.90
20841;DHT22;10581;48.524;9.040;2022-11-20T06:38:57;4.80;99.90
20841;DHT22;10581;48.524;9.040;2022-11-20T06:41:23;4.80;99.90
20841;DHT22;10581;48.524;9.040;2022-11-20T06:43:49;4.80;99.90
20841;DHT22;10581;48.524;9.040;2022-11-20T06:46:15;4.80;99.90
20841;DHT22;10581;48.524;9.040;2022-11-20T06:48:42;4.80;99.90
20841;DHT22;10581;48.524;9.040;2022-11-20T06:51:08;4.90;99.90
20841;DHT22;10581;48.524;9.040;2022-11-20T06:53:33;4.80;99.90
20841;DHT22;10581;48.524;9.040;2022-11-20T06:55:59;4.80;99.90
20841;DHT22;10581;48.524;9.040;2022-11-20T06:58:28;4.90;99.90
20841;DHT22;10581;48.524;9.040;2022-11-20T07:00:54;4.90;99.90
20841;DHT22;10581;48.524;9.040;2022-11-20T07:03:22;4.90;99.90
20841;DHT22;10581;48.524;9.040;2022-11-20T07:05:48;5.00;99.90
20841;DHT22;10581;48.524;9.040;2022-11-20T07:08:13;5.00;99.90
20841;DHT22;10581;48.524;9.040;2022-11-20T07:10:39;5.10;99.90
20841;DHT22;10581;48.524;9.040;2022-11-20T07:13:04;5.20;99.90
20841;DHT22;10581;48.524;9.040;2022-11-20T07:15:30;5.20;99.90
20841;DHT22;10581;48.524;9.040;2022-11-20T07:17:58;5.20;99.90
20841;DHT22;10581;48.524;9.040;2022-11-20T07:20:23;5.30;99.90
20841;DHT22;10581;48.524;9.040;2022-11-20T07:22:53;5.30;99.90
20841;DHT22;10581;48.524;9.040;2022-11-20T07:25:19;5.30;99.90
20841;DHT22;10581;48.524;9.040;2022-11-20T07:27:44;5.40;99.90
20841;DHT22;10581;48.524;9.040;2022-11-20T07:30:10;5.40;99.90
20841;DHT22;10581;48.524;9.040;2022-11-20T07:32:36;5.50;99.90
20841;DHT22;10581;48.524;9.040;2022-11-20T07:35:01;5.50;99.90
20841;DHT22;10581;48.524;9.040;2022-11-20T07:37:27;5.50;99.90
20841;DHT22;10581;48.524;9.040;2022-11-20T07:39:52;5.60;99.90
20841;DHT22;10581;48.524;9.040;2022-11-20T07:42:18;5.60;99.90
20841;DHT22;10581;48.524;9.040;2022-11-20T07:44:43;5.60;99.90
20841;DHT22;10581;48.524;9.040;2022-11-20T07:47:09;5.60;99.90
20841;DHT22;10581;48.524;9.040;2022-11-20T07:49:34;5.70;99.90
20841;DHT22;10581;48.524;9.040;2022-11-20T07:52:00;5.70;99.90
20841;DHT22;10581;48.524;9.040;2022-11-20T07:54:25;5.80;99.90
20841;DHT22;10581;48.524;9.040;2022-11-20T07:56:51;5.90;99.90
20841;DHT22;10581;48.524;9.040;2022-11-20T07:59:16;6.00;99.90
20841;DHT22;10581;48.524;9.040;2022-11-20T08:01:42;6.10;99.90
20841;DHT22;10581;48.524;9.040;2022-11-20T08:04:08;6.10;99.90
20841;DHT22;10581;48.524;9.040;2022-11-20T08:06:34;6.10;99.90
20841;DHT22;10581;48.524;9.040;2022-11-20T08:08:59;6.10;99.90
20841;DHT22;10581;48.524;9.040;2022-11-20T08:11:25;6.10;99.90
20841;DHT22;10581;48.524;9.040;2022-11-20T08:14:09;6.20;99.90
20841;DHT22;10581;48.524;9.040;2022-11-20T08:16:38;6.20;99.90
20841;DHT22;10581;48.524;9.040;2022-11-20T08:19:03;6.20;99.90
20841;DHT22;10581;48.524;9.040;2022-11-20T08:21:29;6.20;99.90
20841;DHT22;10581;48.524;9.040;2022-11-20T08:23:55;6.20;99.90
20841;DHT22;10581;48.524;9.040;2022-11-20T08:26:21;6.30;99.90
20841;DHT22;10581;48.524;9.040;2022-11-20T08:28:47;6.30;99.90
20841;DHT22;10581;48.524;9.040;2022-11-20T08:31:12;6.30;99.90
20841;DHT22;10581;48.524;9.040;2022-11-20T08:33:38;6.40;99.90
20841;DHT22;10581;48.524;9.040;2022-11-20T08:36:03;6.50;99.90
20841;DHT22;10581;48.524;9.040;2022-11-20T08:38:30;6.60;99.90
20841;DHT22;10581;48.524;9.040;2022-11-20T08:40:56;6.60;99.90
20841;DHT22;10581;48.524;9.040;2022-11-20T08:43:40;6.60;99.90
20841;DHT22;10581;48.524;9.040;2022-11-20T08:46:06;6.60;99.90
20841;DHT22;10581;48.524;9.040;2022-11-20T08:48:31;6.70;99.90
20841;DHT22;10581;48.524;9.040;2022-11-20T08:51:00;6.70;99.90
20841;DHT22;10581;48.524;9.040;2022-11-20T08:53:25;6.70;99.90
20841;DHT22;10581;48.524;9.040;2022-11-20T08:55:51;6.70;99.90
20841;DHT22;10581;48.524;9.040;2022-11-20T08:58:17;6.60;99.90
20841;DHT22;10581;48.524;9.040;2022-11-20T09:00:42;6.60;99.90
20841;DHT22;10581;48.524;9.040;2022-11-20T09:03:08;6.50;99.90
20841;DHT22;10581;48.524;9.040;2022-11-20T09:05:33;6.60;99.90
20841;DHT22;10581;48.524;9.040;2022-11-20T09:07:59;6.60;99.90
20841;DHT22;10581;48.524;9.040;2022-11-20T09:10:25;6.60;99.90
20841;DHT22;10581;48.524;9.040;2022-11-20T09:12:51;6.60;99.90
20841;DHT22;10581;48.524;9.040;2022-11-20T09:15:17;6.70;99.90
20841;DHT22;10581;48.524;9.040;2022-11-20T09:17:49;6.70;99.90
20841;DHT22;10581;48.524;9.040;2022-11-20T09:20:15;6.70;99.90
20841;DHT22;10581;48.524;9.040;2022-11-20T09:22:41;6.80;99.90
20841;DHT22;10581;48.524;9.040;2022-11-20T09:25:07;6.80;99.90
20841;DHT22;10581;48.524;9.040;2022-11-20T09:27:32;6.80;99.90
20841;DHT22;10581;48.524;9.040;2022-11-20T09:29:58;6.80;99.90
20841;DHT22;10581;48.524;9.040;2022-11-20T09:32:23;6.80;99.90
20841;DHT22;10581;48.524;9.040;2022-11-20T09:34:49;6.80;99.90
20841;DHT22;10581;48.524;9.040;2022-11-20T09:37:14;6.80;99.90
20841;DHT22;10581;48.524;9.040;2022-11-20T09:39:40;6.70;99.90
20841;DHT22;10581;48.524;9.040;2022-11-20T09:45:08;6.60;99.90
20841;DHT22;10581;48.524;9.040;2022-11-20T09:50:37;6.60;99.90
